Nearby METAR Reports

 

EGKA - Shoreham-By-Sea, United Kingdom
Distance from station: SW 9mi, 14km
Updated: Wed, 24-Apr-2019 3:50pm BST
Few Clouds
Few Clouds
 Wind from S
Wind: S 13 mph , 20 km/h
Temperature: 11°C
Dew Point: 10°C
Humidity: 94%
Barometer: 996 hPa
Clouds: Few Clouds
Visibility: 6 miles , 10 km
Cloud details: Few Clouds 335 m
2019/04/24 14:50 EGKA 241450Z 19011KT 9999 FEW011 11/10 Q0996
EGKK - London/Gatwick A, United Kingdom
Distance from station: N 14mi, 22km
Updated: Wed, 24-Apr-2019 3:50pm BST
Mostly Cloudy
Mostly Cloudy
 Wind from SSW
Wind: SSW 14 mph , 22 km/h
Temperature: 13°C
Dew Point: 8°C
Humidity: 72%
Barometer: 995 hPa
Clouds: Mostly Cloudy
Visibility: 6 miles , 10 km
Cloud details: Mostly Cloudy 732 m
2019/04/24 14:50 EGKK 241450Z 20012KT 9999 BKN024 13/08 Q0995
 
EGKB - Biggin Hill, United Kingdom
Distance from station: NNE 28mi, 44km
Updated: Wed, 24-Apr-2019 3:50pm BST
Partly Cloudy
Partly Cloudy
 Wind from SSW
Wind: SSW 20 mph , 31 km/h
Temperature: 13°C
Dew Point: 8°C
Humidity: 72%
Barometer: 995 hPa
Clouds: Partly Cloudy
Visibility: 6 miles , 10 km
Cloud details: Partly Cloudy 671 m
2019/04/24 14:50 EGKB 241450Z 20017KT 9999 SCT022 13/08 Q0995
EGLF - Farnborough, United Kingdom
Distance from station: NW 35mi, 56km
Updated: Wed, 24-Apr-2019 3:50pm BST
Mostly Cloudy
Mostly Cloudy
 Wind from SSW
Wind: SSW 15 mph , 24 km/h
Temperature: 13°C
Dew Point: 7°C
Humidity: 67%
Barometer: 994 hPa
Clouds: Mostly Cloudy
Visibility: 6 miles , 10 km
Cloud details: Few Clouds 732 m
Mostly Cloudy 853 m
2019/04/24 14:50 EGLF 241450Z AUTO 20013KT 9999 FEW024/// BKN028/// 13/07 Q0994
 
EGMD - Lydd Airport, United Kingdom
Distance from station: E 48mi, 77km
Updated: Wed, 24-Apr-2019 3:50pm BST
Mostly Cloudy
Mostly Cloudy
 Wind from SW
Wind: SW 20 mph , 31 km/h
Temperature: 12°C
Dew Point: 11°C
Humidity: 94%
Barometer: 997 hPa
Clouds: Mostly Cloudy
Visibility: 6 miles , 10 km
Cloud details: Few Clouds 152 m
Partly Cloudy 244 m
Mostly Cloudy 1067 m
2019/04/24 14:50 EGMD 241450Z 22017KT 9999 FEW005 SCT008 BKN035 12/11 Q0997
EGHI - Southampton Wx C, United Kingdom
Distance from station: W 50mi, 82km
Updated: Wed, 24-Apr-2019 3:50pm BST
Partly Cloudy
Partly Cloudy
 Wind from S
Wind: S 14 mph , 22 km/h
Temperature: 12°C
Dew Point: 6°C
Humidity: 67%
Barometer: 995 hPa
Clouds: Partly Cloudy
Visibility: 6 miles , 10 km
Cloud details: Few Clouds 732 m
Partly Cloudy 1036 m
2019/04/24 14:50 EGHI 241450Z 19012KT 130V230 9999 FEW024 SCT034 12/06 Q0995

Metar display script from Saratoga-Weather.org